sensor_id;sensor_type;location;lat;lon;timestamp;P1;durP1;ratioP1;P2;durP2;ratioP2
4980;SDS011;2507;50.392;7.482;2023-06-24T00:01:37;7.83;;;7.23;;
4980;SDS011;2507;50.392;7.482;2023-06-24T00:04:03;8.87;;;8.00;;
4980;SDS011;2507;50.392;7.482;2023-06-24T00:06:29;8.77;;;8.00;;
4980;SDS011;2507;50.392;7.482;2023-06-24T00:08:54;8.47;;;7.77;;
4980;SDS011;2507;50.392;7.482;2023-06-24T00:11:25;8.53;;;7.80;;
4980;SDS011;2507;50.392;7.482;2023-06-24T00:13:54;7.87;;;7.10;;
4980;SDS011;2507;50.392;7.482;2023-06-24T00:16:19;8.93;;;8.00;;
4980;SDS011;2507;50.392;7.482;2023-06-24T00:18:51;7.83;;;7.20;;
4980;SDS011;2507;50.392;7.482;2023-06-24T00:21:17;7.50;;;6.80;;
4980;SDS011;2507;50.392;7.482;2023-06-24T00:23:44;7.20;;;6.70;;
4980;SDS011;2507;50.392;7.482;2023-06-24T00:26:10;7.37;;;6.77;;
4980;SDS011;2507;50.392;7.482;2023-06-24T00:28:35;8.33;;;7.53;;
4980;SDS011;2507;50.392;7.482;2023-06-24T00:31:01;9.87;;;8.00;;
4980;SDS011;2507;50.392;7.482;2023-06-24T00:33:27;8.70;;;7.90;;
4980;SDS011;2507;50.392;7.482;2023-06-24T00:35:53;8.83;;;8.13;;
4980;SDS011;2507;50.392;7.482;2023-06-24T00:38:19;8.33;;;7.63;;
4980;SDS011;2507;50.392;7.482;2023-06-24T00:40:44;8.37;;;7.57;;
4980;SDS011;2507;50.392;7.482;2023-06-24T00:43:11;9.80;;;8.80;;
4980;SDS011;2507;50.392;7.482;2023-06-24T00:45:36;10.00;;;8.77;;
4980;SDS011;2507;50.392;7.482;2023-06-24T00:48:02;8.53;;;7.87;;
4980;SDS011;2507;50.392;7.482;2023-06-24T00:50:28;8.00;;;7.40;;
4980;SDS011;2507;50.392;7.482;2023-06-24T00:52:53;9.10;;;8.40;;
4980;SDS011;2507;50.392;7.482;2023-06-24T00:55:19;8.37;;;7.67;;
4980;SDS011;2507;50.392;7.482;2023-06-24T00:57:49;10.63;;;9.63;;
4980;SDS011;2507;50.392;7.482;2023-06-24T01:00:18;8.60;;;7.83;;
4980;SDS011;2507;50.392;7.482;2023-06-24T01:02:46;8.13;;;7.53;;
4980;SDS011;2507;50.392;7.482;2023-06-24T01:05:12;9.20;;;8.27;;
4980;SDS011;2507;50.392;7.482;2023-06-24T01:07:38;10.20;;;9.30;;
4980;SDS011;2507;50.392;7.482;2023-06-24T01:10:04;10.33;;;7.43;;
4980;SDS011;2507;50.392;7.482;2023-06-24T01:12:34;9.60;;;8.47;;
4980;SDS011;2507;50.392;7.482;2023-06-24T01:15:00;8.53;;;7.77;;
4980;SDS011;2507;50.392;7.482;2023-06-24T01:17:29;9.07;;;8.27;;
4980;SDS011;2507;50.392;7.482;2023-06-24T01:20:04;9.93;;;8.67;;
4980;SDS011;2507;50.392;7.482;2023-06-24T01:34:12;9.53;;;8.53;;
4980;SDS011;2507;50.392;7.482;2023-06-24T01:36:40;9.80;;;8.17;;
4980;SDS011;2507;50.392;7.482;2023-06-24T01:39:10;8.70;;;8.03;;
4980;SDS011;2507;50.392;7.482;2023-06-24T01:41:42;9.47;;;8.47;;
4980;SDS011;2507;50.392;7.482;2023-06-24T01:44:12;11.10;;;9.30;;
4980;SDS011;2507;50.392;7.482;2023-06-24T01:46:40;9.53;;;8.77;;
4980;SDS011;2507;50.392;7.482;2023-06-24T01:49:10;10.60;;;9.60;;
4980;SDS011;2507;50.392;7.482;2023-06-24T01:51:38;9.33;;;8.43;;
4980;SDS011;2507;50.392;7.482;2023-06-24T01:54:06;9.30;;;8.50;;
4980;SDS011;2507;50.392;7.482;2023-06-24T01:56:35;9.80;;;8.83;;
4980;SDS011;2507;50.392;7.482;2023-06-24T01:59:03;9.23;;;8.37;;
4980;SDS011;2507;50.392;7.482;2023-06-24T02:01:30;12.40;;;10.07;;
4980;SDS011;2507;50.392;7.482;2023-06-24T02:03:57;10.10;;;8.67;;
4980;SDS011;2507;50.392;7.482;2023-06-24T02:06:25;10.67;;;8.77;;
4980;SDS011;2507;50.392;7.482;2023-06-24T02:08:53;10.50;;;9.60;;
4980;SDS011;2507;50.392;7.482;2023-06-24T02:11:21;9.73;;;8.80;;
4980;SDS011;2507;50.392;7.482;2023-06-24T02:13:48;9.67;;;8.87;;
4980;SDS011;2507;50.392;7.482;2023-06-24T02:16:17;11.20;;;10.10;;
4980;SDS011;2507;50.392;7.482;2023-06-24T02:18:45;11.40;;;10.40;;
4980;SDS011;2507;50.392;7.482;2023-06-24T02:21:12;13.37;;;10.00;;
4980;SDS011;2507;50.392;7.482;2023-06-24T02:23:39;11.20;;;10.10;;
4980;SDS011;2507;50.392;7.482;2023-06-24T02:26:05;10.80;;;9.90;;
4980;SDS011;2507;50.392;7.482;2023-06-24T02:28:32;11.50;;;10.50;;
4980;SDS011;2507;50.392;7.482;2023-06-24T02:30:59;11.53;;;9.93;;
4980;SDS011;2507;50.392;7.482;2023-06-24T02:33:25;11.37;;;10.37;;
4980;SDS011;2507;50.392;7.482;2023-06-24T02:35:51;12.57;;;10.43;;
4980;SDS011;2507;50.392;7.482;2023-06-24T02:38:17;11.90;;;10.90;;
4980;SDS011;2507;50.392;7.482;2023-06-24T02:40:43;12.03;;;10.90;;
4980;SDS011;2507;50.392;7.482;2023-06-24T02:43:10;12.50;;;10.80;;
4980;SDS011;2507;50.392;7.482;2023-06-24T02:45:36;13.70;;;11.20;;
4980;SDS011;2507;50.392;7.482;2023-06-24T02:48:01;12.73;;;11.00;;
4980;SDS011;2507;50.392;7.482;2023-06-24T02:50:28;12.03;;;11.00;;
4980;SDS011;2507;50.392;7.482;2023-06-24T02:52:53;11.93;;;10.63;;
4980;SDS011;2507;50.392;7.482;2023-06-24T02:55:19;14.53;;;10.80;;
4980;SDS011;2507;50.392;7.482;2023-06-24T02:57:45;12.53;;;10.57;;
4980;SDS011;2507;50.392;7.482;2023-06-24T03:00:11;10.90;;;9.97;;
4980;SDS011;2507;50.392;7.482;2023-06-24T03:02:37;11.13;;;10.03;;
4980;SDS011;2507;50.392;7.482;2023-06-24T03:05:03;12.57;;;11.37;;
4980;SDS011;2507;50.392;7.482;2023-06-24T03:07:30;12.50;;;10.10;;
4980;SDS011;2507;50.392;7.482;2023-06-24T03:09:59;11.43;;;9.97;;
4980;SDS011;2507;50.392;7.482;2023-06-24T03:12:26;10.83;;;9.83;;
4980;SDS011;2507;50.392;7.482;2023-06-24T03:14:51;11.43;;;8.90;;
4980;SDS011;2507;50.392;7.482;2023-06-24T03:17:17;13.07;;;11.73;;
4980;SDS011;2507;50.392;7.482;2023-06-24T03:19:42;10.50;;;9.40;;
4980;SDS011;2507;50.392;7.482;2023-06-24T03:22:08;18.07;;;10.00;;
4980;SDS011;2507;50.392;7.482;2023-06-24T03:24:33;17.43;;;9.60;;
4980;SDS011;2507;50.392;7.482;2023-06-24T03:26:58;12.50;;;9.47;;
4980;SDS011;2507;50.392;7.482;2023-06-24T03:29:23;11.40;;;10.30;;
4980;SDS011;2507;50.392;7.482;2023-06-24T03:31:49;10.90;;;10.00;;
4980;SDS011;2507;50.392;7.482;2023-06-24T03:34:15;13.13;;;10.13;;
4980;SDS011;2507;50.392;7.482;2023-06-24T03:36:41;14.97;;;11.00;;
4980;SDS011;2507;50.392;7.482;2023-06-24T03:39:07;11.77;;;10.63;;
4980;SDS011;2507;50.392;7.482;2023-06-24T03:41:32;11.27;;;10.27;;
4980;SDS011;2507;50.392;7.482;2023-06-24T03:43:58;11.73;;;10.60;;
4980;SDS011;2507;50.392;7.482;2023-06-24T03:46:23;12.30;;;11.00;;
4980;SDS011;2507;50.392;7.482;2023-06-24T03:48:49;15.43;;;11.37;;
4980;SDS011;2507;50.392;7.482;2023-06-24T03:51:15;12.23;;;11.03;;
4980;SDS011;2507;50.392;7.482;2023-06-24T03:53:40;10.83;;;9.73;;
4980;SDS011;2507;50.392;7.482;2023-06-24T03:56:06;13.77;;;11.27;;
4980;SDS011;2507;50.392;7.482;2023-06-24T03:58:31;12.43;;;10.60;;
4980;SDS011;2507;50.392;7.482;2023-06-24T04:00:58;11.07;;;10.07;;
4980;SDS011;2507;50.392;7.482;2023-06-24T04:03:24;12.00;;;10.80;;
4980;SDS011;2507;50.392;7.482;2023-06-24T04:05:54;13.07;;;10.30;;
4980;SDS011;2507;50.392;7.482;2023-06-24T04:08:21;11.27;;;9.83;;
4980;SDS011;2507;50.392;7.482;2023-06-24T04:10:47;15.10;;;9.50;;
4980;SDS011;2507;50.392;7.482;2023-06-24T04:13:12;11.87;;;9.20;;
4980;SDS011;2507;50.392;7.482;2023-06-24T04:15:37;10.50;;;9.50;;
4980;SDS011;2507;50.392;7.482;2023-06-24T04:18:03;10.47;;;9.43;;
4980;SDS011;2507;50.392;7.482;2023-06-24T04:20:28;11.93;;;10.17;;
4980;SDS011;2507;50.392;7.482;2023-06-24T04:22:53;10.57;;;9.47;;
4980;SDS011;2507;50.392;7.482;2023-06-24T04:25:19;11.37;;;9.30;;
4980;SDS011;2507;50.392;7.482;2023-06-24T04:27:44;9.97;;;9.00;;
4980;SDS011;2507;50.392;7.482;2023-06-24T04:30:09;13.57;;;7.90;;
4980;SDS011;2507;50.392;7.482;2023-06-24T04:32:35;8.87;;;8.17;;
4980;SDS011;2507;50.392;7.482;2023-06-24T04:35:00;8.83;;;7.37;;
4980;SDS011;2507;50.392;7.482;2023-06-24T04:37:26;15.27;;;8.23;;
4980;SDS011;2507;50.392;7.482;2023-06-24T04:39:51;8.73;;;7.90;;
4980;SDS011;2507;50.392;7.482;2023-06-24T04:42:17;9.53;;;7.97;;
4980;SDS011;2507;50.392;7.482;2023-06-24T04:44:42;11.13;;;8.73;;
4980;SDS011;2507;50.392;7.482;2023-06-24T04:47:07;9.53;;;7.73;;
4980;SDS011;2507;50.392;7.482;2023-06-24T04:49:33;10.10;;;9.20;;
4980;SDS011;2507;50.392;7.482;2023-06-24T04:52:01;9.70;;;8.80;;
4980;SDS011;2507;50.392;7.482;2023-06-24T04:54:27;8.03;;;7.23;;
4980;SDS011;2507;50.392;7.482;2023-06-24T04:56:52;7.77;;;7.17;;
4980;SDS011;2507;50.392;7.482;2023-06-24T04:59:20;8.00;;;6.53;;
4980;SDS011;2507;50.392;7.482;2023-06-24T05:01:48;12.27;;;6.43;;
4980;SDS011;2507;50.392;7.482;2023-06-24T05:04:13;7.33;;;6.00;;
4980;SDS011;2507;50.392;7.482;2023-06-24T05:06:38;7.50;;;6.80;;
4980;SDS011;2507;50.392;7.482;2023-06-24T05:09:04;13.33;;;7.13;;
4980;SDS011;2507;50.392;7.482;2023-06-24T05:11:29;8.47;;;6.57;;
4980;SDS011;2507;50.392;7.482;2023-06-24T05:13:54;15.43;;;6.70;;
4980;SDS011;2507;50.392;7.482;2023-06-24T05:16:19;7.77;;;6.20;;
4980;SDS011;2507;50.392;7.482;2023-06-24T05:18:45;6.30;;;5.90;;
4980;SDS011;2507;50.392;7.482;2023-06-24T05:21:10;8.83;;;6.23;;
4980;SDS011;2507;50.392;7.482;2023-06-24T05:23:36;7.33;;;6.77;;
4980;SDS011;2507;50.392;7.482;2023-06-24T05:26:01;11.53;;;7.03;;
4980;SDS011;2507;50.392;7.482;2023-06-24T05:28:27;10.20;;;6.90;;
4980;SDS011;2507;50.392;7.482;2023-06-24T05:30:52;9.60;;;6.63;;
4980;SDS011;2507;50.392;7.482;2023-06-24T05:33:17;7.77;;;6.87;;
4980;SDS011;2507;50.392;7.482;2023-06-24T05:35:43;5.93;;;5.40;;
4980;SDS011;2507;50.392;7.482;2023-06-24T05:38:08;6.60;;;6.00;;
4980;SDS011;2507;50.392;7.482;2023-06-24T05:40:34;7.20;;;6.50;;
4980;SDS011;2507;50.392;7.482;2023-06-24T05:42:59;6.33;;;5.83;;
4980;SDS011;2507;50.392;7.482;2023-06-24T05:45:25;6.93;;;6.33;;
4980;SDS011;2507;50.392;7.482;2023-06-24T05:47:51;8.73;;;6.17;;
4980;SDS011;2507;50.392;7.482;2023-06-24T05:50:17;7.00;;;6.37;;
4980;SDS011;2507;50.392;7.482;2023-06-24T05:52:42;6.93;;;6.40;;
4980;SDS011;2507;50.392;7.482;2023-06-24T05:55:08;7.50;;;6.27;;
4980;SDS011;2507;50.392;7.482;2023-06-24T05:57:34;10.47;;;5.87;;
4980;SDS011;2507;50.392;7.482;2023-06-24T05:59:59;11.00;;;6.90;;
4980;SDS011;2507;50.392;7.482;2023-06-24T06:02:24;6.90;;;6.37;;
4980;SDS011;2507;50.392;7.482;2023-06-24T06:04:50;6.20;;;5.47;;
4980;SDS011;2507;50.392;7.482;2023-06-24T06:07:15;7.23;;;6.60;;
4980;SDS011;2507;50.392;7.482;2023-06-24T06:09:41;6.17;;;5.67;;
4980;SDS011;2507;50.392;7.482;2023-06-24T06:12:06;6.70;;;6.20;;
4980;SDS011;2507;50.392;7.482;2023-06-24T06:14:32;7.40;;;6.80;;
4980;SDS011;2507;50.392;7.482;2023-06-24T06:16:57;11.87;;;6.30;;
4980;SDS011;2507;50.392;7.482;2023-06-24T06:19:22;6.67;;;6.00;;
4980;SDS011;2507;50.392;7.482;2023-06-24T06:21:48;6.70;;;6.10;;
4980;SDS011;2507;50.392;7.482;2023-06-24T06:24:14;8.80;;;6.33;;
4980;SDS011;2507;50.392;7.482;2023-06-24T06:26:43;5.83;;;5.43;;
4980;SDS011;2507;50.392;7.482;2023-06-24T06:29:09;6.40;;;5.90;;
4980;SDS011;2507;50.392;7.482;2023-06-24T06:31:35;6.20;;;5.63;;
4980;SDS011;2507;50.392;7.482;2023-06-24T06:34:01;5.80;;;5.30;;
4980;SDS011;2507;50.392;7.482;2023-06-24T06:36:26;5.90;;;5.40;;
4980;SDS011;2507;50.392;7.482;2023-06-24T06:38:52;6.20;;;5.63;;
4980;SDS011;2507;50.392;7.482;2023-06-24T06:41:17;4.63;;;4.20;;
4980;SDS011;2507;50.392;7.482;2023-06-24T06:43:49;8.53;;;4.50;;
4980;SDS011;2507;50.392;7.482;2023-06-24T06:46:14;5.70;;;5.10;;
4980;SDS011;2507;50.392;7.482;2023-06-24T06:48:39;5.20;;;4.80;;
4980;SDS011;2507;50.392;7.482;2023-06-24T06:51:05;5.03;;;4.60;;
4980;SDS011;2507;50.392;7.482;2023-06-24T06:53:30;4.83;;;4.40;;
4980;SDS011;2507;50.392;7.482;2023-06-24T06:55:55;5.00;;;4.60;;
4980;SDS011;2507;50.392;7.482;2023-06-24T06:58:20;8.47;;;5.27;;
4980;SDS011;2507;50.392;7.482;2023-06-24T07:00:46;5.13;;;4.70;;
4980;SDS011;2507;50.392;7.482;2023-06-24T07:03:11;6.87;;;5.13;;
4980;SDS011;2507;50.392;7.482;2023-06-24T07:05:37;5.27;;;4.77;;
4980;SDS011;2507;50.392;7.482;2023-06-24T07:08:03;6.17;;;4.77;;
4980;SDS011;2507;50.392;7.482;2023-06-24T07:10:30;4.87;;;4.60;;
4980;SDS011;2507;50.392;7.482;2023-06-24T07:12:55;5.03;;;4.63;;
4980;SDS011;2507;50.392;7.482;2023-06-24T07:15:23;4.70;;;4.40;;
4980;SDS011;2507;50.392;7.482;2023-06-24T07:17:51;4.70;;;4.40;;
4980;SDS011;2507;50.392;7.482;2023-06-24T07:20:18;4.90;;;4.00;;
4980;SDS011;2507;50.392;7.482;2023-06-24T07:22:43;4.90;;;4.50;;
4980;SDS011;2507;50.392;7.482;2023-06-24T07:25:09;7.53;;;5.10;;
4980;SDS011;2507;50.392;7.482;2023-06-24T07:27:34;5.43;;;4.50;;
4980;SDS011;2507;50.392;7.482;2023-06-24T07:29:59;4.80;;;4.43;;
4980;SDS011;2507;50.392;7.482;2023-06-24T07:32:25;5.73;;;5.10;;
4980;SDS011;2507;50.392;7.482;2023-06-24T07:34:50;4.70;;;4.40;;
4980;SDS011;2507;50.392;7.482;2023-06-24T07:37:15;7.25;;;4.68;;
4980;SDS011;2507;50.392;7.482;2023-06-24T07:39:41;4.90;;;4.50;;
4980;SDS011;2507;50.392;7.482;2023-06-24T07:42:06;4.87;;;4.40;;
4980;SDS011;2507;50.392;7.482;2023-06-24T07:44:32;4.50;;;4.28;;
4980;SDS011;2507;50.392;7.482;2023-06-24T07:46:57;4.93;;;4.55;;
4980;SDS011;2507;50.392;7.482;2023-06-24T07:49:23;3.90;;;3.60;;
4980;SDS011;2507;50.392;7.482;2023-06-24T07:51:49;5.07;;;4.67;;
4980;SDS011;2507;50.392;7.482;2023-06-24T07:54:15;4.05;;;3.60;;
4980;SDS011;2507;50.392;7.482;2023-06-24T07:56:40;4.20;;;3.90;;
4980;SDS011;2507;50.392;7.482;2023-06-24T07:59:06;3.92;;;3.70;;
4980;SDS011;2507;50.392;7.482;2023-06-24T08:01:31;4.93;;;4.53;;
4980;SDS011;2507;50.392;7.482;2023-06-24T08:03:56;4.10;;;3.88;;
4980;SDS011;2507;50.392;7.482;2023-06-24T08:06:22;4.40;;;4.20;;
4980;SDS011;2507;50.392;7.482;2023-06-24T08:08:47;7.75;;;5.22;;
4980;SDS011;2507;50.392;7.482;2023-06-24T08:11:12;5.10;;;4.60;;
4980;SDS011;2507;50.392;7.482;2023-06-24T08:13:38;5.87;;;4.60;;
4980;SDS011;2507;50.392;7.482;2023-06-24T08:16:04;4.57;;;4.25;;
4980;SDS011;2507;50.392;7.482;2023-06-24T08:18:29;4.35;;;4.00;;
4980;SDS011;2507;50.392;7.482;2023-06-24T08:20:55;4.20;;;4.00;;
4980;SDS011;2507;50.392;7.482;2023-06-24T08:23:20;4.47;;;4.18;;
4980;SDS011;2507;50.392;7.482;2023-06-24T08:25:46;4.10;;;3.80;;
4980;SDS011;2507;50.392;7.482;2023-06-24T08:28:11;4.95;;;4.10;;
4980;SDS011;2507;50.392;7.482;2023-06-24T08:30:36;4.10;;;3.90;;
4980;SDS011;2507;50.392;7.482;2023-06-24T08:33:02;4.73;;;4.33;;
4980;SDS011;2507;50.392;7.482;2023-06-24T08:35:27;7.20;;;4.67;;
4980;SDS011;2507;50.392;7.482;2023-06-24T08:37:53;5.30;;;4.00;;
4980;SDS011;2507;50.392;7.482;2023-06-24T08:40:18;5.87;;;4.80;;
4980;SDS011;2507;50.392;7.482;2023-06-24T08:42:43;3.90;;;3.70;;
4980;SDS011;2507;50.392;7.482;2023-06-24T08:45:09;3.70;;;3.60;;
4980;SDS011;2507;50.392;7.482;2023-06-24T08:47:34;5.90;;;4.45;;
4980;SDS011;2507;50.392;7.482;2023-06-24T08:50:04;4.32;;;4.05;;
4980;SDS011;2507;50.392;7.482;2023-06-24T08:52:34;4.72;;;4.32;;
4980;SDS011;2507;50.392;7.482;2023-06-24T08:55:01;4.30;;;4.00;;
4980;SDS011;2507;50.392;7.482;2023-06-24T08:57:27;4.63;;;4.20;;
4980;SDS011;2507;50.392;7.482;2023-06-24T08:59:53;4.13;;;3.83;;
4980;SDS011;2507;50.392;7.482;2023-06-24T09:02:18;4.63;;;4.33;;
4980;SDS011;2507;50.392;7.482;2023-06-24T09:04:44;4.73;;;4.40;;
4980;SDS011;2507;50.392;7.482;2023-06-24T09:07:09;4.93;;;4.63;;
4980;SDS011;2507;50.392;7.482;2023-06-24T09:09:41;5.60;;;5.20;;
4980;SDS011;2507;50.392;7.482;2023-06-24T09:12:10;5.40;;;4.90;;
4980;SDS011;2507;50.392;7.482;2023-06-24T09:14:36;5.67;;;5.07;;
4980;SDS011;2507;50.392;7.482;2023-06-24T09:17:02;5.90;;;5.30;;
4980;SDS011;2507;50.392;7.482;2023-06-24T09:19:28;4.83;;;4.53;;
4980;SDS011;2507;50.392;7.482;2023-06-24T09:21:54;5.50;;;4.97;;
4980;SDS011;2507;50.392;7.482;2023-06-24T09:24:21;5.63;;;5.07;;
4980;SDS011;2507;50.392;7.482;2023-06-24T09:26:46;5.70;;;5.30;;
4980;SDS011;2507;50.392;7.482;2023-06-24T09:29:12;4.87;;;4.57;;
4980;SDS011;2507;50.392;7.482;2023-06-24T09:31:45;5.70;;;5.10;;
4980;SDS011;2507;50.392;7.482;2023-06-24T09:34:12;6.03;;;5.43;;
4980;SDS011;2507;50.392;7.482;2023-06-24T09:36:41;6.50;;;4.73;;
4980;SDS011;2507;50.392;7.482;2023-06-24T09:39:07;5.60;;;5.10;;
4980;SDS011;2507;50.392;7.482;2023-06-24T09:41:33;4.90;;;4.50;;
4980;SDS011;2507;50.392;7.482;2023-06-24T09:43:59;4.87;;;4.57;;
4980;SDS011;2507;50.392;7.482;2023-06-24T09:46:24;4.97;;;4.40;;
4980;SDS011;2507;50.392;7.482;2023-06-24T09:48:50;6.90;;;4.70;;
4980;SDS011;2507;50.392;7.482;2023-06-24T09:51:15;5.70;;;5.20;;
4980;SDS011;2507;50.392;7.482;2023-06-24T09:53:41;4.77;;;4.03;;
4980;SDS011;2507;50.392;7.482;2023-06-24T09:56:09;6.40;;;4.60;;
4980;SDS011;2507;50.392;7.482;2023-06-24T09:58:37;4.50;;;4.03;;
4980;SDS011;2507;50.392;7.482;2023-06-24T10:01:06;4.20;;;3.93;;
4980;SDS011;2507;50.392;7.482;2023-06-24T10:03:32;4.30;;;4.00;;
4980;SDS011;2507;50.392;7.482;2023-06-24T10:06:02;5.33;;;4.83;;
4980;SDS011;2507;50.392;7.482;2023-06-24T10:08:31;4.50;;;4.20;;
4980;SDS011;2507;50.392;7.482;2023-06-24T10:10:57;4.13;;;3.80;;
4980;SDS011;2507;50.392;7.482;2023-06-24T10:13:23;4.80;;;4.40;;
4980;SDS011;2507;50.392;7.482;2023-06-24T10:15:50;3.80;;;3.60;;
4980;SDS011;2507;50.392;7.482;2023-06-24T10:18:36;4.63;;;4.30;;
4980;SDS011;2507;50.392;7.482;2023-06-24T10:21:02;4.43;;;4.03;;
4980;SDS011;2507;50.392;7.482;2023-06-24T10:24:10;4.07;;;3.80;;
4980;SDS011;2507;50.392;7.482;2023-06-24T10:26:28;4.40;;;3.00;;
4980;SDS011;2507;50.392;7.482;2023-06-24T10:34:28;4.03;;;3.63;;
4980;SDS011;2507;50.392;7.482;2023-06-24T10:44:56;5.30;;;3.70;;
4980;SDS011;2507;50.392;7.482;2023-06-24T10:47:43;3.27;;;3.10;;
4980;SDS011;2507;50.392;7.482;2023-06-24T10:50:10;5.37;;;4.70;;
4980;SDS011;2507;50.392;7.482;2023-06-24T10:52:47;4.23;;;3.80;;
4980;SDS011;2507;50.392;7.482;2023-06-24T10:55:14;4.87;;;4.40;;
4980;SDS011;2507;50.392;7.482;2023-06-24T10:57:41;3.80;;;3.50;;
4980;SDS011;2507;50.392;7.482;2023-06-24T11:00:06;4.07;;;3.80;;
4980;SDS011;2507;50.392;7.482;2023-06-24T11:02:32;3.80;;;3.60;;
4980;SDS011;2507;50.392;7.482;2023-06-24T11:04:58;12.73;;;3.30;;
4980;SDS011;2507;50.392;7.482;2023-06-24T11:07:29;3.80;;;3.50;;
4980;SDS011;2507;50.392;7.482;2023-06-24T11:12:30;3.63;;;3.33;;
4980;SDS011;2507;50.392;7.482;2023-06-24T11:14:57;3.63;;;3.43;;
4980;SDS011;2507;50.392;7.482;2023-06-24T11:17:24;4.03;;;3.73;;
4980;SDS011;2507;50.392;7.482;2023-06-24T11:19:52;3.50;;;3.20;;
4980;SDS011;2507;50.392;7.482;2023-06-24T11:22:18;3.57;;;3.40;;
4980;SDS011;2507;50.392;7.482;2023-06-24T11:24:43;3.60;;;3.33;;
4980;SDS011;2507;50.392;7.482;2023-06-24T11:27:08;3.80;;;3.37;;
4980;SDS011;2507;50.392;7.482;2023-06-24T11:29:33;3.30;;;3.10;;
4980;SDS011;2507;50.392;7.482;2023-06-24T11:32:00;3.77;;;3.13;;
4980;SDS011;2507;50.392;7.482;2023-06-24T11:34:26;3.87;;;3.40;;
4980;SDS011;2507;50.392;7.482;2023-06-24T11:36:52;4.07;;;3.77;;
4980;SDS011;2507;50.392;7.482;2023-06-24T11:39:23;7.90;;;3.27;;
4980;SDS011;2507;50.392;7.482;2023-06-24T11:41:50;3.73;;;3.40;;
4980;SDS011;2507;50.392;7.482;2023-06-24T11:44:20;4.43;;;3.60;;
4980;SDS011;2507;50.392;7.482;2023-06-24T11:46:46;3.40;;;3.20;;
4980;SDS011;2507;50.392;7.482;2023-06-24T11:49:11;3.60;;;3.40;;
4980;SDS011;2507;50.392;7.482;2023-06-24T11:51:44;4.00;;;3.80;;
4980;SDS011;2507;50.392;7.482;2023-06-24T11:54:13;3.53;;;3.40;;
4980;SDS011;2507;50.392;7.482;2023-06-24T11:56:40;5.57;;;3.60;;
4980;SDS011;2507;50.392;7.482;2023-06-24T11:59:28;3.40;;;3.10;;
4980;SDS011;2507;50.392;7.482;2023-06-24T12:01:56;3.70;;;3.43;;
4980;SDS011;2507;50.392;7.482;2023-06-24T12:04:30;3.90;;;3.60;;
4980;SDS011;2507;50.392;7.482;2023-06-24T12:06:56;3.63;;;3.43;;
4980;SDS011;2507;50.392;7.482;2023-06-24T12:09:22;3.57;;;3.37;;
4980;SDS011;2507;50.392;7.482;2023-06-24T12:11:48;4.17;;;3.90;;
4980;SDS011;2507;50.392;7.482;2023-06-24T12:14:13;4.47;;;4.07;;
4980;SDS011;2507;50.392;7.482;2023-06-24T12:16:39;4.27;;;3.97;;
4980;SDS011;2507;50.392;7.482;2023-06-24T12:19:05;4.03;;;3.80;;
4980;SDS011;2507;50.392;7.482;2023-06-24T12:21:31;3.97;;;3.67;;
4980;SDS011;2507;50.392;7.482;2023-06-24T12:23:57;3.50;;;3.30;;
4980;SDS011;2507;50.392;7.482;2023-06-24T12:26:22;3.43;;;3.30;;
4980;SDS011;2507;50.392;7.482;2023-06-24T12:28:47;3.87;;;3.67;;
4980;SDS011;2507;50.392;7.482;2023-06-24T12:31:12;3.67;;;3.47;;
4980;SDS011;2507;50.392;7.482;2023-06-24T12:33:38;4.07;;;3.77;;
4980;SDS011;2507;50.392;7.482;2023-06-24T12:36:03;3.90;;;3.70;;
4980;SDS011;2507;50.392;7.482;2023-06-24T12:38:28;4.37;;;3.90;;
4980;SDS011;2507;50.392;7.482;2023-06-24T12:40:54;3.73;;;3.43;;
4980;SDS011;2507;50.392;7.482;2023-06-24T12:43:19;4.30;;;4.00;;
4980;SDS011;2507;50.392;7.482;2023-06-24T12:45:44;3.63;;;3.20;;
4980;SDS011;2507;50.392;7.482;2023-06-24T12:48:10;3.53;;;3.30;;
4980;SDS011;2507;50.392;7.482;2023-06-24T12:50:36;3.80;;;3.60;;
4980;SDS011;2507;50.392;7.482;2023-06-24T12:53:02;4.67;;;3.93;;
4980;SDS011;2507;50.392;7.482;2023-06-24T12:55:28;3.50;;;3.23;;
4980;SDS011;2507;50.392;7.482;2023-06-24T12:57:54;4.00;;;3.70;;
4980;SDS011;2507;50.392;7.482;2023-06-24T13:00:19;4.53;;;4.13;;
4980;SDS011;2507;50.392;7.482;2023-06-24T13:02:46;4.37;;;3.97;;
4980;SDS011;2507;50.392;7.482;2023-06-24T13:05:11;3.77;;;3.43;;
4980;SDS011;2507;50.392;7.482;2023-06-24T13:07:36;3.70;;;3.50;;
4980;SDS011;2507;50.392;7.482;2023-06-24T13:10:02;3.60;;;3.40;;
4980;SDS011;2507;50.392;7.482;2023-06-24T13:12:27;4.20;;;3.80;;
4980;SDS011;2507;50.392;7.482;2023-06-24T13:14:53;3.50;;;3.30;;
4980;SDS011;2507;50.392;7.482;2023-06-24T13:17:18;4.03;;;3.67;;
4980;SDS011;2507;50.392;7.482;2023-06-24T13:19:43;3.83;;;3.37;;
4980;SDS011;2507;50.392;7.482;2023-06-24T13:22:08;3.67;;;3.47;;
4980;SDS011;2507;50.392;7.482;2023-06-24T13:24:34;3.80;;;3.53;;
4980;SDS011;2507;50.392;7.482;2023-06-24T13:26:59;3.47;;;3.17;;
4980;SDS011;2507;50.392;7.482;2023-06-24T13:29:24;3.20;;;3.10;;
4980;SDS011;2507;50.392;7.482;2023-06-24T13:31:50;3.57;;;3.30;;
4980;SDS011;2507;50.392;7.482;2023-06-24T13:34:15;4.10;;;3.80;;
4980;SDS011;2507;50.392;7.482;2023-06-24T13:36:40;3.63;;;3.43;;
4980;SDS011;2507;50.392;7.482;2023-06-24T13:39:06;4.97;;;3.83;;
4980;SDS011;2507;50.392;7.482;2023-06-24T13:41:33;4.00;;;3.70;;
4980;SDS011;2507;50.392;7.482;2023-06-24T13:43:59;3.67;;;3.37;;
4980;SDS011;2507;50.392;7.482;2023-06-24T13:46:25;4.10;;;3.80;;
4980;SDS011;2507;50.392;7.482;2023-06-24T13:48:51;3.90;;;3.60;;
4980;SDS011;2507;50.392;7.482;2023-06-24T13:51:17;3.83;;;3.53;;
4980;SDS011;2507;50.392;7.482;2023-06-24T13:53:44;4.30;;;4.00;;
4980;SDS011;2507;50.392;7.482;2023-06-24T13:56:10;3.63;;;3.33;;
4980;SDS011;2507;50.392;7.482;2023-06-24T13:58:35;3.77;;;3.53;;
4980;SDS011;2507;50.392;7.482;2023-06-24T14:01:00;3.77;;;3.57;;
4980;SDS011;2507;50.392;7.482;2023-06-24T14:03:25;3.93;;;3.63;;
4980;SDS011;2507;50.392;7.482;2023-06-24T14:05:51;3.63;;;3.43;;
4980;SDS011;2507;50.392;7.482;2023-06-24T14:08:16;3.47;;;3.23;;
4980;SDS011;2507;50.392;7.482;2023-06-24T14:10:42;3.87;;;3.57;;
4980;SDS011;2507;50.392;7.482;2023-06-24T14:13:07;3.53;;;3.23;;
4980;SDS011;2507;50.392;7.482;2023-06-24T14:15:32;4.17;;;3.70;;
4980;SDS011;2507;50.392;7.482;2023-06-24T14:17:57;6.60;;;3.67;;
4980;SDS011;2507;50.392;7.482;2023-06-24T14:20:23;3.93;;;3.73;;
4980;SDS011;2507;50.392;7.482;2023-06-24T14:22:49;3.90;;;3.70;;
4980;SDS011;2507;50.392;7.482;2023-06-24T14:25:15;3.87;;;3.67;;
4980;SDS011;2507;50.392;7.482;2023-06-24T14:27:40;9.93;;;4.30;;
4980;SDS011;2507;50.392;7.482;2023-06-24T14:30:06;3.77;;;3.57;;
4980;SDS011;2507;50.392;7.482;2023-06-24T14:32:32;4.97;;;3.60;;
4980;SDS011;2507;50.392;7.482;2023-06-24T14:34:57;3.50;;;3.30;;
4980;SDS011;2507;50.392;7.482;2023-06-24T14:37:22;4.40;;;4.07;;
4980;SDS011;2507;50.392;7.482;2023-06-24T14:39:48;3.33;;;3.10;;
4980;SDS011;2507;50.392;7.482;2023-06-24T14:42:13;3.47;;;3.37;;
4980;SDS011;2507;50.392;7.482;2023-06-24T14:44:38;3.40;;;3.30;;
4980;SDS011;2507;50.392;7.482;2023-06-24T14:47:04;3.50;;;3.40;;
4980;SDS011;2507;50.392;7.482;2023-06-24T14:49:29;3.20;;;3.10;;
4980;SDS011;2507;50.392;7.482;2023-06-24T14:51:55;3.57;;;3.27;;
4980;SDS011;2507;50.392;7.482;2023-06-24T14:54:20;4.13;;;3.80;;
4980;SDS011;2507;50.392;7.482;2023-06-24T14:56:47;3.90;;;3.70;;
4980;SDS011;2507;50.392;7.482;2023-06-24T14:59:13;3.50;;;3.30;;
4980;SDS011;2507;50.392;7.482;2023-06-24T15:01:38;4.10;;;3.87;;
4980;SDS011;2507;50.392;7.482;2023-06-24T15:04:04;3.90;;;3.70;;
4980;SDS011;2507;50.392;7.482;2023-06-24T15:06:29;3.37;;;3.17;;
4980;SDS011;2507;50.392;7.482;2023-06-24T15:08:54;6.03;;;3.93;;
4980;SDS011;2507;50.392;7.482;2023-06-24T15:11:20;3.73;;;3.53;;
4980;SDS011;2507;50.392;7.482;2023-06-24T15:13:45;4.23;;;3.87;;
4980;SDS011;2507;50.392;7.482;2023-06-24T15:16:10;7.47;;;3.87;;
4980;SDS011;2507;50.392;7.482;2023-06-24T15:18:43;3.83;;;3.60;;
4980;SDS011;2507;50.392;7.482;2023-06-24T15:21:12;3.70;;;3.50;;
4980;SDS011;2507;50.392;7.482;2023-06-24T15:23:38;3.83;;;3.63;;
4980;SDS011;2507;50.392;7.482;2023-06-24T15:26:03;4.00;;;3.70;;
4980;SDS011;2507;50.392;7.482;2023-06-24T15:28:28;4.40;;;4.00;;
4980;SDS011;2507;50.392;7.482;2023-06-24T15:30:54;4.23;;;3.93;;
4980;SDS011;2507;50.392;7.482;2023-06-24T15:33:20;4.30;;;3.90;;